Terminal Aerodrome Forecast
Issued by NWS Pocatello, ID

Home | Current Version | Previous Version | Text Only | Print | Product List | Glossary On
Versions: 1 2 3 4 5 6 7 8 9 10 11 12 13 14 15 16 17 18 19 20 21 22 23 24
000
FTUS45 KPIH 290200 AAA
TAFPIH
TAF AMD
KPIH 290237Z 2903/2924 24011KT 4SM -SN OVC025
      TEMPO 2903/2907 2SM -SN OVC015
     FM291200 VRB05KT 6SM -SN OVC007
     FM292100 06008KT P6SM OVC025=

USA.gov is the U.S. government's official web portal to all federal, state and local government web resources and services.